sensor_id;sensor_type;location;lat;lon;timestamp;temperature;humidity
8792;DHT22;4432;50.890;4.744;2022-07-03T00:00:34;16.20;99.90
8792;DHT22;4432;50.890;4.744;2022-07-03T00:03:00;16.20;99.90
8792;DHT22;4432;50.890;4.744;2022-07-03T00:05:26;16.10;99.90
8792;DHT22;4432;50.890;4.744;2022-07-03T00:07:52;16.10;99.90
8792;DHT22;4432;50.890;4.744;2022-07-03T00:10:18;16.10;99.90
8792;DHT22;4432;50.890;4.744;2022-07-03T00:12:44;16.10;99.90
8792;DHT22;4432;50.890;4.744;2022-07-03T00:15:10;16.10;99.90
8792;DHT22;4432;50.890;4.744;2022-07-03T00:17:36;16.00;99.90
8792;DHT22;4432;50.890;4.744;2022-07-03T00:20:01;16.00;99.90
8792;DHT22;4432;50.890;4.744;2022-07-03T00:22:29;16.00;99.90
8792;DHT22;4432;50.890;4.744;2022-07-03T00:25:04;15.90;99.90
8792;DHT22;4432;50.890;4.744;2022-07-03T00:27:32;15.90;99.90
8792;DHT22;4432;50.890;4.744;2022-07-03T00:30:00;15.90;99.90
8792;DHT22;4432;50.890;4.744;2022-07-03T00:32:27;15.80;99.90
8792;DHT22;4432;50.890;4.744;2022-07-03T00:34:55;15.70;99.90
8792;DHT22;4432;50.890;4.744;2022-07-03T00:37:23;15.70;99.90
8792;DHT22;4432;50.890;4.744;2022-07-03T00:39:49;15.60;99.90
8792;DHT22;4432;50.890;4.744;2022-07-03T00:42:16;15.50;99.90
8792;DHT22;4432;50.890;4.744;2022-07-03T00:44:47;15.50;99.90
8792;DHT22;4432;50.890;4.744;2022-07-03T00:47:22;15.40;99.90
8792;DHT22;4432;50.890;4.744;2022-07-03T00:49:50;15.30;99.90
8792;DHT22;4432;50.890;4.744;2022-07-03T00:52:17;15.30;99.90
8792;DHT22;4432;50.890;4.744;2022-07-03T00:54:45;15.20;99.90
8792;DHT22;4432;50.890;4.744;2022-07-03T00:57:17;15.10;99.90
8792;DHT22;4432;50.890;4.744;2022-07-03T00:59:43;15.00;99.90
8792;DHT22;4432;50.890;4.744;2022-07-03T01:02:34;15.00;99.90
8792;DHT22;4432;50.890;4.744;2022-07-03T01:07:41;14.90;99.90
8792;DHT22;4432;50.890;4.744;2022-07-03T01:21:09;14.60;99.90
8792;DHT22;4432;50.890;4.744;2022-07-03T01:23:55;14.40;99.90
8792;DHT22;4432;50.890;4.744;2022-07-03T01:26:24;14.40;99.90
8792;DHT22;4432;50.890;4.744;2022-07-03T01:28:52;14.40;99.90
8792;DHT22;4432;50.890;4.744;2022-07-03T01:31:19;14.40;99.90
8792;DHT22;4432;50.890;4.744;2022-07-03T01:33:47;14.40;99.90
8792;DHT22;4432;50.890;4.744;2022-07-03T01:36:15;14.40;99.90
8792;DHT22;4432;50.890;4.744;2022-07-03T01:38:42;14.50;99.90
8792;DHT22;4432;50.890;4.744;2022-07-03T01:41:11;14.50;99.90
8792;DHT22;4432;50.890;4.744;2022-07-03T01:43:56;14.50;99.90
8792;DHT22;4432;50.890;4.744;2022-07-03T01:46:31;14.60;99.90
8792;DHT22;4432;50.890;4.744;2022-07-03T01:48:59;14.70;99.90
8792;DHT22;4432;50.890;4.744;2022-07-03T01:51:26;14.70;99.90
8792;DHT22;4432;50.890;4.744;2022-07-03T01:53:52;14.80;99.90
8792;DHT22;4432;50.890;4.744;2022-07-03T01:56:21;14.80;99.90
8792;DHT22;4432;50.890;4.744;2022-07-03T01:58:48;14.80;99.90
8792;DHT22;4432;50.890;4.744;2022-07-03T02:01:57;14.80;99.90
8792;DHT22;4432;50.890;4.744;2022-07-03T02:04:34;14.70;99.90
8792;DHT22;4432;50.890;4.744;2022-07-03T02:07:16;14.70;99.90
8792;DHT22;4432;50.890;4.744;2022-07-03T02:09:49;14.70;99.90
8792;DHT22;4432;50.890;4.744;2022-07-03T02:12:18;14.70;99.90
8792;DHT22;4432;50.890;4.744;2022-07-03T02:15:06;14.70;99.90
8792;DHT22;4432;50.890;4.744;2022-07-03T02:17:43;14.70;99.90
8792;DHT22;4432;50.890;4.744;2022-07-03T02:20:11;14.60;99.90
8792;DHT22;4432;50.890;4.744;2022-07-03T02:22:46;14.60;99.90
8792;DHT22;4432;50.890;4.744;2022-07-03T02:25:21;14.60;99.90
8792;DHT22;4432;50.890;4.744;2022-07-03T02:27:57;14.70;99.90
8792;DHT22;4432;50.890;4.744;2022-07-03T02:30:28;14.70;99.90
8792;DHT22;4432;50.890;4.744;2022-07-03T02:32:57;14.70;99.90
8792;DHT22;4432;50.890;4.744;2022-07-03T02:35:29;14.60;99.90
8792;DHT22;4432;50.890;4.744;2022-07-03T02:40:27;14.50;99.90
8792;DHT22;4432;50.890;4.744;2022-07-03T02:45:45;14.50;99.90
8792;DHT22;4432;50.890;4.744;2022-07-03T02:48:31;14.60;99.90
8792;DHT22;4432;50.890;4.744;2022-07-03T02:51:04;14.60;99.90
8792;DHT22;4432;50.890;4.744;2022-07-03T02:53:38;14.60;99.90
8792;DHT22;4432;50.890;4.744;2022-07-03T02:56:26;14.50;99.90
8792;DHT22;4432;50.890;4.744;2022-07-03T03:02:02;14.50;99.90
8792;DHT22;4432;50.890;4.744;2022-07-03T03:04:31;14.50;99.90
8792;DHT22;4432;50.890;4.744;2022-07-03T03:07:14;14.50;99.90
8792;DHT22;4432;50.890;4.744;2022-07-03T03:09:45;14.40;99.90
8792;DHT22;4432;50.890;4.744;2022-07-03T03:12:13;14.30;99.90
8792;DHT22;4432;50.890;4.744;2022-07-03T03:14:41;14.20;99.90
8792;DHT22;4432;50.890;4.744;2022-07-03T03:17:09;14.20;99.90
8792;DHT22;4432;50.890;4.744;2022-07-03T03:19:40;14.10;99.90
8792;DHT22;4432;50.890;4.744;2022-07-03T03:24:53;14.20;99.90
8792;DHT22;4432;50.890;4.744;2022-07-03T03:27:19;14.20;99.90
8792;DHT22;4432;50.890;4.744;2022-07-03T03:29:47;14.20;99.90
8792;DHT22;4432;50.890;4.744;2022-07-03T03:32:13;14.20;99.90
8792;DHT22;4432;50.890;4.744;2022-07-03T03:34:41;14.10;99.90
8792;DHT22;4432;50.890;4.744;2022-07-03T03:37:07;14.10;99.90
8792;DHT22;4432;50.890;4.744;2022-07-03T03:39:33;14.10;99.90
8792;DHT22;4432;50.890;4.744;2022-07-03T03:41:59;14.00;99.90
8792;DHT22;4432;50.890;4.744;2022-07-03T03:44:27;14.00;99.90
8792;DHT22;4432;50.890;4.744;2022-07-03T03:46:54;13.90;99.90
8792;DHT22;4432;50.890;4.744;2022-07-03T03:49:20;13.90;99.90
8792;DHT22;4432;50.890;4.744;2022-07-03T03:51:46;13.90;99.90
8792;DHT22;4432;50.890;4.744;2022-07-03T03:54:11;13.90;99.90
8792;DHT22;4432;50.890;4.744;2022-07-03T03:56:37;13.90;99.90
8792;DHT22;4432;50.890;4.744;2022-07-03T03:59:03;13.90;99.90
8792;DHT22;4432;50.890;4.744;2022-07-03T04:01:29;14.00;99.90
8792;DHT22;4432;50.890;4.744;2022-07-03T04:03:54;14.10;99.90
8792;DHT22;4432;50.890;4.744;2022-07-03T04:06:20;14.10;99.90
8792;DHT22;4432;50.890;4.744;2022-07-03T04:08:46;14.20;99.90
8792;DHT22;4432;50.890;4.744;2022-07-03T04:11:12;14.30;99.90
8792;DHT22;4432;50.890;4.744;2022-07-03T04:13:37;14.30;99.90
8792;DHT22;4432;50.890;4.744;2022-07-03T04:16:03;14.20;99.90
8792;DHT22;4432;50.890;4.744;2022-07-03T04:18:29;14.30;99.90
8792;DHT22;4432;50.890;4.744;2022-07-03T04:20:55;14.40;99.90
8792;DHT22;4432;50.890;4.744;2022-07-03T04:23:21;14.50;99.90
8792;DHT22;4432;50.890;4.744;2022-07-03T04:25:47;14.60;99.90
8792;DHT22;4432;50.890;4.744;2022-07-03T04:28:13;14.70;99.90
8792;DHT22;4432;50.890;4.744;2022-07-03T04:30:39;14.80;99.90
8792;DHT22;4432;50.890;4.744;2022-07-03T04:33:05;14.90;99.90
8792;DHT22;4432;50.890;4.744;2022-07-03T04:35:30;15.00;99.90
8792;DHT22;4432;50.890;4.744;2022-07-03T04:37:56;15.20;99.90
8792;DHT22;4432;50.890;4.744;2022-07-03T04:40:22;15.30;99.90
8792;DHT22;4432;50.890;4.744;2022-07-03T04:42:48;15.30;99.90
8792;DHT22;4432;50.890;4.744;2022-07-03T04:45:13;15.40;99.90
8792;DHT22;4432;50.890;4.744;2022-07-03T04:47:39;15.50;99.90
8792;DHT22;4432;50.890;4.744;2022-07-03T04:50:06;15.50;99.90
8792;DHT22;4432;50.890;4.744;2022-07-03T04:52:31;15.50;99.90
8792;DHT22;4432;50.890;4.744;2022-07-03T04:54:57;15.50;99.90
8792;DHT22;4432;50.890;4.744;2022-07-03T04:57:23;15.50;99.90
8792;DHT22;4432;50.890;4.744;2022-07-03T04:59:49;15.50;99.90
8792;DHT22;4432;50.890;4.744;2022-07-03T05:02:14;15.40;99.90
8792;DHT22;4432;50.890;4.744;2022-07-03T05:04:40;15.40;99.90
8792;DHT22;4432;50.890;4.744;2022-07-03T05:07:06;15.50;99.90
8792;DHT22;4432;50.890;4.744;2022-07-03T05:09:32;15.70;99.90
8792;DHT22;4432;50.890;4.744;2022-07-03T05:11:58;15.90;99.90
8792;DHT22;4432;50.890;4.744;2022-07-03T05:14:23;16.10;99.90
8792;DHT22;4432;50.890;4.744;2022-07-03T05:16:49;16.30;99.90
8792;DHT22;4432;50.890;4.744;2022-07-03T05:19:15;16.40;99.90
8792;DHT22;4432;50.890;4.744;2022-07-03T05:21:41;16.50;99.90
8792;DHT22;4432;50.890;4.744;2022-07-03T05:24:07;16.60;99.90
8792;DHT22;4432;50.890;4.744;2022-07-03T05:26:32;16.70;99.90
8792;DHT22;4432;50.890;4.744;2022-07-03T05:28:58;16.70;99.90
8792;DHT22;4432;50.890;4.744;2022-07-03T05:31:24;16.90;99.90
8792;DHT22;4432;50.890;4.744;2022-07-03T05:33:50;17.30;99.90
8792;DHT22;4432;50.890;4.744;2022-07-03T05:36:15;17.40;99.90
8792;DHT22;4432;50.890;4.744;2022-07-03T05:38:41;17.40;99.90
8792;DHT22;4432;50.890;4.744;2022-07-03T05:41:25;17.30;99.90
8792;DHT22;4432;50.890;4.744;2022-07-03T05:43:51;17.30;99.90
8792;DHT22;4432;50.890;4.744;2022-07-03T05:46:17;17.20;99.90
8792;DHT22;4432;50.890;4.744;2022-07-03T05:48:42;17.20;99.90
8792;DHT22;4432;50.890;4.744;2022-07-03T05:51:08;17.20;99.90
8792;DHT22;4432;50.890;4.744;2022-07-03T05:53:34;17.30;99.90
8792;DHT22;4432;50.890;4.744;2022-07-03T05:56:00;17.20;99.90
8792;DHT22;4432;50.890;4.744;2022-07-03T05:58:25;17.20;99.90
8792;DHT22;4432;50.890;4.744;2022-07-03T06:00:51;17.20;99.90
8792;DHT22;4432;50.890;4.744;2022-07-03T06:03:17;17.30;99.90
8792;DHT22;4432;50.890;4.744;2022-07-03T06:05:43;17.30;99.90
8792;DHT22;4432;50.890;4.744;2022-07-03T06:08:09;17.40;99.90
8792;DHT22;4432;50.890;4.744;2022-07-03T06:10:35;17.50;99.90
8792;DHT22;4432;50.890;4.744;2022-07-03T06:13:01;17.60;99.90
8792;DHT22;4432;50.890;4.744;2022-07-03T06:15:27;17.60;99.90
8792;DHT22;4432;50.890;4.744;2022-07-03T06:17:53;17.60;99.90
8792;DHT22;4432;50.890;4.744;2022-07-03T06:20:19;17.80;99.90
8792;DHT22;4432;50.890;4.744;2022-07-03T06:22:45;17.90;99.90
8792;DHT22;4432;50.890;4.744;2022-07-03T06:25:11;18.00;99.90
8792;DHT22;4432;50.890;4.744;2022-07-03T06:27:37;18.00;99.90
8792;DHT22;4432;50.890;4.744;2022-07-03T06:30:04;18.00;99.90
8792;DHT22;4432;50.890;4.744;2022-07-03T06:32:30;18.00;99.90
8792;DHT22;4432;50.890;4.744;2022-07-03T06:34:55;18.00;99.90
8792;DHT22;4432;50.890;4.744;2022-07-03T06:37:21;18.10;99.90
8792;DHT22;4432;50.890;4.744;2022-07-03T06:39:47;18.00;99.90
8792;DHT22;4432;50.890;4.744;2022-07-03T06:42:13;18.10;99.90
8792;DHT22;4432;50.890;4.744;2022-07-03T06:44:39;18.10;99.90
8792;DHT22;4432;50.890;4.744;2022-07-03T06:47:06;18.30;99.90
8792;DHT22;4432;50.890;4.744;2022-07-03T06:49:35;18.40;99.90
8792;DHT22;4432;50.890;4.744;2022-07-03T06:52:01;18.40;99.90
8792;DHT22;4432;50.890;4.744;2022-07-03T06:54:27;18.50;99.90
8792;DHT22;4432;50.890;4.744;2022-07-03T06:56:53;18.70;99.90
8792;DHT22;4432;50.890;4.744;2022-07-03T06:59:19;18.90;99.90
8792;DHT22;4432;50.890;4.744;2022-07-03T07:01:45;19.10;99.90
8792;DHT22;4432;50.890;4.744;2022-07-03T07:04:10;19.30;99.90
8792;DHT22;4432;50.890;4.744;2022-07-03T07:06:36;19.40;99.90
8792;DHT22;4432;50.890;4.744;2022-07-03T07:09:03;19.50;99.90
8792;DHT22;4432;50.890;4.744;2022-07-03T07:11:29;19.70;99.90
8792;DHT22;4432;50.890;4.744;2022-07-03T07:13:55;19.90;99.90
8792;DHT22;4432;50.890;4.744;2022-07-03T07:16:21;20.40;99.90
8792;DHT22;4432;50.890;4.744;2022-07-03T07:18:47;20.60;99.90
8792;DHT22;4432;50.890;4.744;2022-07-03T07:21:12;20.70;99.90
8792;DHT22;4432;50.890;4.744;2022-07-03T07:23:38;20.80;99.90
8792;DHT22;4432;50.890;4.744;2022-07-03T07:26:04;20.80;99.90
8792;DHT22;4432;50.890;4.744;2022-07-03T07:28:30;20.80;99.90
8792;DHT22;4432;50.890;4.744;2022-07-03T07:30:59;20.70;99.90
8792;DHT22;4432;50.890;4.744;2022-07-03T07:33:24;20.60;99.90
8792;DHT22;4432;50.890;4.744;2022-07-03T07:35:50;20.50;99.90
8792;DHT22;4432;50.890;4.744;2022-07-03T07:38:17;20.40;99.90
8792;DHT22;4432;50.890;4.744;2022-07-03T07:40:43;20.30;99.90
8792;DHT22;4432;50.890;4.744;2022-07-03T07:43:08;20.10;99.90
8792;DHT22;4432;50.890;4.744;2022-07-03T07:45:34;20.20;99.90
8792;DHT22;4432;50.890;4.744;2022-07-03T07:48:00;20.00;99.90
8792;DHT22;4432;50.890;4.744;2022-07-03T07:50:26;19.90;99.90
8792;DHT22;4432;50.890;4.744;2022-07-03T07:52:52;19.80;99.90
8792;DHT22;4432;50.890;4.744;2022-07-03T07:55:18;19.70;99.90
8792;DHT22;4432;50.890;4.744;2022-07-03T07:57:46;19.70;99.90
8792;DHT22;4432;50.890;4.744;2022-07-03T08:00:14;19.80;99.90
8792;DHT22;4432;50.890;4.744;2022-07-03T08:02:41;20.00;99.90
8792;DHT22;4432;50.890;4.744;2022-07-03T08:05:26;20.40;99.90
8792;DHT22;4432;50.890;4.744;2022-07-03T08:10:35;21.00;99.90
8792;DHT22;4432;50.890;4.744;2022-07-03T08:13:01;21.10;99.90
8792;DHT22;4432;50.890;4.744;2022-07-03T08:15:26;21.10;99.90
8792;DHT22;4432;50.890;4.744;2022-07-03T08:17:52;20.90;99.90
8792;DHT22;4432;50.890;4.744;2022-07-03T08:20:18;20.90;99.90
8792;DHT22;4432;50.890;4.744;2022-07-03T08:22:43;21.00;99.90
8792;DHT22;4432;50.890;4.744;2022-07-03T08:25:09;21.00;99.90
8792;DHT22;4432;50.890;4.744;2022-07-03T08:27:35;21.00;99.90
8792;DHT22;4432;50.890;4.744;2022-07-03T08:30:01;21.20;99.90
8792;DHT22;4432;50.890;4.744;2022-07-03T08:32:27;21.40;99.90
8792;DHT22;4432;50.890;4.744;2022-07-03T08:34:52;21.40;99.90
8792;DHT22;4432;50.890;4.744;2022-07-03T08:37:18;21.40;99.90
8792;DHT22;4432;50.890;4.744;2022-07-03T08:39:44;21.50;99.90
8792;DHT22;4432;50.890;4.744;2022-07-03T08:42:11;21.40;99.90
8792;DHT22;4432;50.890;4.744;2022-07-03T08:44:38;21.40;99.90
8792;DHT22;4432;50.890;4.744;2022-07-03T08:47:07;21.40;99.90
8792;DHT22;4432;50.890;4.744;2022-07-03T08:49:36;21.60;99.90
8792;DHT22;4432;50.890;4.744;2022-07-03T08:52:03;21.40;99.90
8792;DHT22;4432;50.890;4.744;2022-07-03T08:54:33;21.40;99.90
8792;DHT22;4432;50.890;4.744;2022-07-03T08:57:01;21.50;99.90
8792;DHT22;4432;50.890;4.744;2022-07-03T08:59:34;21.40;99.90
8792;DHT22;4432;50.890;4.744;2022-07-03T09:02:03;21.80;99.90
8792;DHT22;4432;50.890;4.744;2022-07-03T09:04:30;22.40;99.90
8792;DHT22;4432;50.890;4.744;2022-07-03T09:06:57;22.80;99.90
8792;DHT22;4432;50.890;4.744;2022-07-03T09:09:24;22.80;99.90
8792;DHT22;4432;50.890;4.744;2022-07-03T09:11:50;23.00;99.90
8792;DHT22;4432;50.890;4.744;2022-07-03T09:14:16;23.20;99.90
8792;DHT22;4432;50.890;4.744;2022-07-03T09:16:42;23.10;99.90
8792;DHT22;4432;50.890;4.744;2022-07-03T09:19:08;23.10;99.90
8792;DHT22;4432;50.890;4.744;2022-07-03T09:21:38;23.50;99.90
8792;DHT22;4432;50.890;4.744;2022-07-03T09:24:09;23.90;99.90
8792;DHT22;4432;50.890;4.744;2022-07-03T09:26:35;23.50;99.90
8792;DHT22;4432;50.890;4.744;2022-07-03T09:29:02;23.70;99.90
8792;DHT22;4432;50.890;4.744;2022-07-03T09:31:31;23.50;99.90
8792;DHT22;4432;50.890;4.744;2022-07-03T09:34:05;23.80;99.90
8792;DHT22;4432;50.890;4.744;2022-07-03T09:36:40;24.00;99.90
8792;DHT22;4432;50.890;4.744;2022-07-03T09:39:15;24.80;99.90
8792;DHT22;4432;50.890;4.744;2022-07-03T09:42:13;25.20;99.90
8792;DHT22;4432;50.890;4.744;2022-07-03T09:44:45;25.70;99.90
8792;DHT22;4432;50.890;4.744;2022-07-03T09:47:24;25.90;99.90
8792;DHT22;4432;50.890;4.744;2022-07-03T09:49:56;25.40;99.90
8792;DHT22;4432;50.890;4.744;2022-07-03T09:52:38;25.10;99.90
8792;DHT22;4432;50.890;4.744;2022-07-03T09:57:40;24.40;99.90
8792;DHT22;4432;50.890;4.744;2022-07-03T10:00:36;24.60;99.90
8792;DHT22;4432;50.890;4.744;2022-07-03T10:03:09;24.80;99.90
8792;DHT22;4432;50.890;4.744;2022-07-03T10:05:39;24.70;99.90
8792;DHT22;4432;50.890;4.744;2022-07-03T10:08:15;24.30;99.90
8792;DHT22;4432;50.890;4.744;2022-07-03T10:10:46;24.00;99.90
8792;DHT22;4432;50.890;4.744;2022-07-03T10:13:13;23.50;99.90
8792;DHT22;4432;50.890;4.744;2022-07-03T10:15:40;23.60;99.90
8792;DHT22;4432;50.890;4.744;2022-07-03T10:18:08;23.50;99.90
8792;DHT22;4432;50.890;4.744;2022-07-03T10:20:48;23.40;99.90
8792;DHT22;4432;50.890;4.744;2022-07-03T10:23:20;23.20;99.90
8792;DHT22;4432;50.890;4.744;2022-07-03T10:25:47;23.50;99.90
8792;DHT22;4432;50.890;4.744;2022-07-03T10:28:15;23.70;99.90
8792;DHT22;4432;50.890;4.744;2022-07-03T10:30:43;23.80;99.90
8792;DHT22;4432;50.890;4.744;2022-07-03T10:33:09;24.00;99.90
8792;DHT22;4432;50.890;4.744;2022-07-03T10:35:38;24.30;99.90
8792;DHT22;4432;50.890;4.744;2022-07-03T10:38:38;24.40;99.90
8792;DHT22;4432;50.890;4.744;2022-07-03T10:44:34;24.10;99.90
8792;DHT22;4432;50.890;4.744;2022-07-03T10:50:14;25.30;99.90
8792;DHT22;4432;50.890;4.744;2022-07-03T10:52:41;24.20;99.90
8792;DHT22;4432;50.890;4.744;2022-07-03T10:55:08;24.10;99.90
8792;DHT22;4432;50.890;4.744;2022-07-03T10:57:35;24.00;99.90
8792;DHT22;4432;50.890;4.744;2022-07-03T11:00:04;24.20;99.90
8792;DHT22;4432;50.890;4.744;2022-07-03T11:13:03;24.90;99.90
8792;DHT22;4432;50.890;4.744;2022-07-03T11:15:48;24.50;99.90
8792;DHT22;4432;50.890;4.744;2022-07-03T11:18:28;24.60;99.90
8792;DHT22;4432;50.890;4.744;2022-07-03T11:23:28;24.90;97.00
8792;DHT22;4432;50.890;4.744;2022-07-03T11:25:55;24.60;96.50
8792;DHT22;4432;50.890;4.744;2022-07-03T11:38:44;23.70;99.90
8792;DHT22;4432;50.890;4.744;2022-07-03T11:41:13;24.10;99.90
8792;DHT22;4432;50.890;4.744;2022-07-03T11:43:47;24.20;99.60
8792;DHT22;4432;50.890;4.744;2022-07-03T11:46:17;24.10;99.50
8792;DHT22;4432;50.890;4.744;2022-07-03T11:48:43;23.70;97.90
8792;DHT22;4432;50.890;4.744;2022-07-03T11:51:08;23.50;99.90
8792;DHT22;4432;50.890;4.744;2022-07-03T11:53:36;24.20;98.80
8792;DHT22;4432;50.890;4.744;2022-07-03T11:56:10;24.20;99.60
8792;DHT22;4432;50.890;4.744;2022-07-03T11:58:45;24.60;99.30
8792;DHT22;4432;50.890;4.744;2022-07-03T12:01:28;24.30;99.50
8792;DHT22;4432;50.890;4.744;2022-07-03T12:06:56;24.30;96.80
8792;DHT22;4432;50.890;4.744;2022-07-03T12:09:26;24.20;99.90
8792;DHT22;4432;50.890;4.744;2022-07-03T12:12:09;23.40;96.70
8792;DHT22;4432;50.890;4.744;2022-07-03T12:14:48;23.20;96.00
8792;DHT22;4432;50.890;4.744;2022-07-03T12:17:22;23.60;98.10
8792;DHT22;4432;50.890;4.744;2022-07-03T12:19:57;24.00;97.00
8792;DHT22;4432;50.890;4.744;2022-07-03T12:22:35;24.40;97.40
8792;DHT22;4432;50.890;4.744;2022-07-03T12:25:08;25.00;98.90
8792;DHT22;4432;50.890;4.744;2022-07-03T12:27:36;25.30;97.90
8792;DHT22;4432;50.890;4.744;2022-07-03T12:30:04;25.40;95.30
8792;DHT22;4432;50.890;4.744;2022-07-03T12:32:30;25.50;92.70
8792;DHT22;4432;50.890;4.744;2022-07-03T12:34:56;25.20;93.30
8792;DHT22;4432;50.890;4.744;2022-07-03T12:37:36;24.80;93.50
8792;DHT22;4432;50.890;4.744;2022-07-03T12:40:03;25.00;95.00
8792;DHT22;4432;50.890;4.744;2022-07-03T12:42:30;25.30;92.50
8792;DHT22;4432;50.890;4.744;2022-07-03T12:45:00;24.70;94.90
8792;DHT22;4432;50.890;4.744;2022-07-03T12:47:27;25.20;93.20
8792;DHT22;4432;50.890;4.744;2022-07-03T12:49:58;25.30;93.10
8792;DHT22;4432;50.890;4.744;2022-07-03T12:52:26;25.60;91.20
8792;DHT22;4432;50.890;4.744;2022-07-03T12:54:52;25.50;93.20
8792;DHT22;4432;50.890;4.744;2022-07-03T12:57:18;25.60;94.40
8792;DHT22;4432;50.890;4.744;2022-07-03T13:00:06;25.00;91.90
8792;DHT22;4432;50.890;4.744;2022-07-03T13:02:39;25.10;92.30
8792;DHT22;4432;50.890;4.744;2022-07-03T13:07:41;24.60;85.90
8792;DHT22;4432;50.890;4.744;2022-07-03T13:10:08;24.90;90.00
8792;DHT22;4432;50.890;4.744;2022-07-03T13:12:34;25.10;86.40
8792;DHT22;4432;50.890;4.744;2022-07-03T13:15:07;25.20;90.00
8792;DHT22;4432;50.890;4.744;2022-07-03T13:18:05;25.90;82.00
8792;DHT22;4432;50.890;4.744;2022-07-03T13:20:32;25.90;85.00
8792;DHT22;4432;50.890;4.744;2022-07-03T13:23:03;25.90;82.00
8792;DHT22;4432;50.890;4.744;2022-07-03T13:25:30;25.90;78.60
8792;DHT22;4432;50.890;4.744;2022-07-03T13:28:06;25.50;75.50
8792;DHT22;4432;50.890;4.744;2022-07-03T13:30:32;24.90;76.00
8792;DHT22;4432;50.890;4.744;2022-07-03T13:32:58;24.90;71.90
8792;DHT22;4432;50.890;4.744;2022-07-03T13:35:24;25.20;68.50
8792;DHT22;4432;50.890;4.744;2022-07-03T13:37:50;25.40;70.30
8792;DHT22;4432;50.890;4.744;2022-07-03T13:40:16;25.30;82.00
8792;DHT22;4432;50.890;4.744;2022-07-03T13:42:41;24.60;74.60
8792;DHT22;4432;50.890;4.744;2022-07-03T13:45:08;24.80;72.20
8792;DHT22;4432;50.890;4.744;2022-07-03T13:47:33;24.60;72.50
8792;DHT22;4432;50.890;4.744;2022-07-03T13:49:59;24.90;76.70
8792;DHT22;4432;50.890;4.744;2022-07-03T13:52:25;25.40;75.10
8792;DHT22;4432;50.890;4.744;2022-07-03T13:54:51;25.80;76.50
8792;DHT22;4432;50.890;4.744;2022-07-03T13:57:17;25.40;80.80
8792;DHT22;4432;50.890;4.744;2022-07-03T13:59:43;25.40;69.60
8792;DHT22;4432;50.890;4.744;2022-07-03T14:02:09;25.10;67.70
8792;DHT22;4432;50.890;4.744;2022-07-03T14:04:35;24.90;68.70
8792;DHT22;4432;50.890;4.744;2022-07-03T14:07:01;24.80;68.20
8792;DHT22;4432;50.890;4.744;2022-07-03T14:09:27;24.80;69.10
8792;DHT22;4432;50.890;4.744;2022-07-03T14:11:52;25.00;72.40
8792;DHT22;4432;50.890;4.744;2022-07-03T14:14:18;25.50;71.50
8792;DHT22;4432;50.890;4.744;2022-07-03T14:16:44;25.40;68.50
8792;DHT22;4432;50.890;4.744;2022-07-03T14:19:09;24.70;66.40
8792;DHT22;4432;50.890;4.744;2022-07-03T14:21:35;24.40;68.20
8792;DHT22;4432;50.890;4.744;2022-07-03T14:24:01;24.50;69.40
8792;DHT22;4432;50.890;4.744;2022-07-03T14:26:27;24.80;67.00
8792;DHT22;4432;50.890;4.744;2022-07-03T14:29:11;24.40;71.60
8792;DHT22;4432;50.890;4.744;2022-07-03T14:31:55;24.20;78.00
8792;DHT22;4432;50.890;4.744;2022-07-03T14:34:40;24.10;72.60
8792;DHT22;4432;50.890;4.744;2022-07-03T14:37:07;24.10;76.60
8792;DHT22;4432;50.890;4.744;2022-07-03T14:39:32;23.80;75.50
8792;DHT22;4432;50.890;4.744;2022-07-03T14:41:58;23.80;76.50
8792;DHT22;4432;50.890;4.744;2022-07-03T14:44:24;23.50;78.40
8792;DHT22;4432;50.890;4.744;2022-07-03T14:46:52;23.70;79.00
8792;DHT22;4432;50.890;4.744;2022-07-03T14:49:18;23.80;79.40
8792;DHT22;4432;50.890;4.744;2022-07-03T14:51:44;23.90;73.90
8792;DHT22;4432;50.890;4.744;2022-07-03T14:54:10;24.30;80.80
8792;DHT22;4432;50.890;4.744;2022-07-03T14:56:40;24.30;72.50
8792;DHT22;4432;50.890;4.744;2022-07-03T14:59:09;24.10;77.50
8792;DHT22;4432;50.890;4.744;2022-07-03T15:01:36;23.90;75.20
8792;DHT22;4432;50.890;4.744;2022-07-03T15:04:20;23.70;70.90
8792;DHT22;4432;50.890;4.744;2022-07-03T15:06:48;23.50;73.20
8792;DHT22;4432;50.890;4.744;2022-07-03T15:09:24;23.60;71.30
8792;DHT22;4432;50.890;4.744;2022-07-03T15:11:54;23.60;75.80
8792;DHT22;4432;50.890;4.744;2022-07-03T15:14:45;23.80;73.30
8792;DHT22;4432;50.890;4.744;2022-07-03T15:17:12;24.20;77.40
8792;DHT22;4432;50.890;4.744;2022-07-03T15:19:38;24.50;72.20
8792;DHT22;4432;50.890;4.744;2022-07-03T15:22:07;24.30;69.60
8792;DHT22;4432;50.890;4.744;2022-07-03T15:24:36;24.10;69.40
8792;DHT22;4432;50.890;4.744;2022-07-03T15:27:02;23.80;71.00
8792;DHT22;4432;50.890;4.744;2022-07-03T15:29:30;24.10;73.20
8792;DHT22;4432;50.890;4.744;2022-07-03T15:32:01;24.30;77.90
8792;DHT22;4432;50.890;4.744;2022-07-03T15:34:27;24.60;82.90
8792;DHT22;4432;50.890;4.744;2022-07-03T15:37:13;24.90;73.00
8792;DHT22;4432;50.890;4.744;2022-07-03T15:39:55;24.60;72.60
8792;DHT22;4432;50.890;4.744;2022-07-03T15:42:35;24.50;73.60
8792;DHT22;4432;50.890;4.744;2022-07-03T15:45:16;24.20;69.10
8792;DHT22;4432;50.890;4.744;2022-07-03T15:47:58;24.10;69.70
8792;DHT22;4432;50.890;4.744;2022-07-03T15:50:35;24.00;75.10
8792;DHT22;4432;50.890;4.744;2022-07-03T15:53:04;24.10;68.30
8792;DHT22;4432;50.890;4.744;2022-07-03T15:55:32;24.10;70.70
8792;DHT22;4432;50.890;4.744;2022-07-03T15:58:03;24.00;69.20
8792;DHT22;4432;50.890;4.744;2022-07-03T16:00:35;23.70;70.90
8792;DHT22;4432;50.890;4.744;2022-07-03T16:05:38;23.60;72.40
8792;DHT22;4432;50.890;4.744;2022-07-03T16:08:12;23.80;72.10
8792;DHT22;4432;50.890;4.744;2022-07-03T16:10:39;23.80;67.60
8792;DHT22;4432;50.890;4.744;2022-07-03T16:13:06;23.80;69.10
8792;DHT22;4432;50.890;4.744;2022-07-03T16:15:37;23.60;71.40
8792;DHT22;4432;50.890;4.744;2022-07-03T16:18:03;23.40;67.30
8792;DHT22;4432;50.890;4.744;2022-07-03T16:20:30;23.30;67.70
8792;DHT22;4432;50.890;4.744;2022-07-03T16:23:00;23.10;74.60
8792;DHT22;4432;50.890;4.744;2022-07-03T16:25:32;22.70;77.60
8792;DHT22;4432;50.890;4.744;2022-07-03T16:28:12;22.50;80.70
8792;DHT22;4432;50.890;4.744;2022-07-03T16:30:56;22.40;80.20
8792;DHT22;4432;50.890;4.744;2022-07-03T16:33:26;22.40;82.80
8792;DHT22;4432;50.890;4.744;2022-07-03T16:35:54;22.60;83.80
8792;DHT22;4432;50.890;4.744;2022-07-03T16:38:31;22.70;80.80
8792;DHT22;4432;50.890;4.744;2022-07-03T16:41:00;22.70;79.40
8792;DHT22;4432;50.890;4.744;2022-07-03T16:43:31;22.60;79.30
8792;DHT22;4432;50.890;4.744;2022-07-03T16:45:58;22.40;81.10
8792;DHT22;4432;50.890;4.744;2022-07-03T16:48:28;22.20;82.00
8792;DHT22;4432;50.890;4.744;2022-07-03T16:50:59;22.10;84.20
8792;DHT22;4432;50.890;4.744;2022-07-03T16:53:28;22.30;85.90
8792;DHT22;4432;50.890;4.744;2022-07-03T16:55:54;22.30;85.30
8792;DHT22;4432;50.890;4.744;2022-07-03T16:58:22;22.20;84.80
8792;DHT22;4432;50.890;4.744;2022-07-03T17:00:48;22.20;84.40
8792;DHT22;4432;50.890;4.744;2022-07-03T17:03:17;22.20;87.10
8792;DHT22;4432;50.890;4.744;2022-07-03T17:05:45;22.20;86.20
8792;DHT22;4432;50.890;4.744;2022-07-03T17:08:15;22.00;87.30
8792;DHT22;4432;50.890;4.744;2022-07-03T17:10:41;21.90;87.60
8792;DHT22;4432;50.890;4.744;2022-07-03T17:13:09;21.90;88.70
8792;DHT22;4432;50.890;4.744;2022-07-03T17:15:35;21.90;88.00
8792;DHT22;4432;50.890;4.744;2022-07-03T17:18:05;21.90;89.00
8792;DHT22;4432;50.890;4.744;2022-07-03T17:20:34;22.00;88.70
8792;DHT22;4432;50.890;4.744;2022-07-03T17:23:10;22.00;86.60